createdAt,value
2022-10-13T00:01:28.889Z,29.73
2022-10-13T00:03:57.522Z,28.00
2022-10-13T00:06:27.669Z,30.58
2022-10-13T00:08:56.685Z,33.00
2022-10-13T00:11:28.512Z,28.85
2022-10-13T00:14:00.489Z,30.55
2022-10-13T00:16:32.099Z,29.88
2022-10-13T00:19:00.799Z,32.22
2022-10-13T00:21:30.128Z,32.28
2022-10-13T00:23:58.251Z,33.00
2022-10-13T00:26:27.745Z,32.58
2022-10-13T00:28:57.347Z,31.45
2022-10-13T00:31:31.094Z,30.27
2022-10-13T00:34:02.747Z,30.42
2022-10-13T00:36:31.765Z,32.22
2022-10-13T00:39:00.549Z,31.13
2022-10-13T00:41:31.786Z,31.40
2022-10-13T00:44:13.534Z,30.45
2022-10-13T00:46:50.028Z,30.60
2022-10-13T00:49:24.890Z,28.65
2022-10-13T01:19:13.142Z,26.40
2022-10-13T01:22:43.174Z,27.10
2022-10-13T01:25:35.482Z,24.73
2022-10-13T01:28:35.089Z,27.02
2022-10-13T01:31:15.776Z,26.08
2022-10-13T01:33:50.936Z,26.63
2022-10-13T01:36:31.205Z,26.95
2022-10-13T01:39:10.214Z,27.73
2022-10-13T01:41:42.488Z,26.85
2022-10-13T01:44:18.115Z,25.30
2022-10-13T01:46:51.352Z,25.05
2022-10-13T01:49:24.815Z,23.92
2022-10-13T01:51:58.512Z,25.83
2022-10-13T01:54:26.681Z,22.50
2022-10-13T01:56:55.074Z,24.02
2022-10-13T01:59:26.569Z,24.77
2022-10-13T02:02:12.407Z,24.35
2022-10-13T02:04:57.725Z,23.67
2022-10-13T02:07:33.547Z,25.05
2022-10-13T02:10:14.078Z,25.77
2022-10-13T02:12:51.853Z,23.60
2022-10-13T02:15:27.199Z,23.73
2022-10-13T02:17:59.541Z,22.75
2022-10-13T02:20:27.944Z,23.77
2022-10-13T02:23:03.857Z,24.98
2022-10-13T02:25:34.780Z,24.13
2022-10-13T02:28:03.874Z,23.90
2022-10-13T02:30:34.233Z,21.63
2022-10-13T02:33:04.434Z,23.48
2022-10-13T02:35:33.601Z,22.00
2022-10-13T02:38:02.635Z,23.23
2022-10-13T02:40:31.094Z,22.25
2022-10-13T02:42:59.299Z,24.67
2022-10-13T02:45:27.869Z,20.50
2022-10-13T02:47:56.233Z,21.63
2022-10-13T02:50:25.867Z,20.73
2022-10-13T02:52:54.017Z,20.85
2022-10-13T02:55:22.644Z,18.95
2022-10-13T02:57:50.774Z,20.73
2022-10-13T03:00:19.190Z,21.58
2022-10-13T03:02:47.574Z,21.77
2022-10-13T03:05:15.991Z,21.67
2022-10-13T03:07:45.800Z,22.65
2022-10-13T03:10:13.963Z,20.27
2022-10-13T03:12:42.224Z,21.65
2022-10-13T03:15:10.967Z,24.25
2022-10-13T03:17:39.291Z,22.55
2022-10-13T03:20:09.729Z,21.80
2022-10-13T03:22:37.947Z,29.52
2022-10-13T03:25:08.816Z,25.70
2022-10-13T03:27:37.289Z,22.00
2022-10-13T03:30:06.680Z,24.38
2022-10-13T03:32:34.935Z,23.38
2022-10-13T03:35:03.263Z,23.38
2022-10-13T03:37:31.677Z,37.50
2022-10-13T03:40:00.027Z,38.97
2022-10-13T03:42:30.951Z,35.05
2022-10-13T03:44:59.137Z,30.30
2022-10-13T03:47:39.854Z,26.15
2022-10-13T03:50:09.652Z,32.65
2022-10-13T03:52:37.939Z,23.48
2022-10-13T03:55:08.041Z,26.92
2022-10-13T03:57:37.937Z,31.25
2022-10-13T04:00:10.681Z,21.15
2022-10-13T04:02:38.933Z,22.55
2022-10-13T04:05:09.912Z,20.42
2022-10-13T04:08:09.206Z,22.58
2022-10-13T04:10:41.574Z,20.95
2022-10-13T04:13:11.451Z,21.25
2022-10-13T04:15:42.008Z,22.55
2022-10-13T04:18:12.455Z,23.40
2022-10-13T04:20:41.485Z,21.10
2022-10-13T04:23:09.799Z,23.88
2022-10-13T04:25:38.482Z,20.25
2022-10-13T04:28:09.720Z,23.25
2022-10-13T04:30:39.433Z,23.33
2022-10-13T04:33:07.724Z,20.50
2022-10-13T04:35:40.767Z,19.40
2022-10-13T04:38:19.892Z,20.02
2022-10-13T04:40:48.270Z,19.85
2022-10-13T04:43:17.095Z,19.83
2022-10-13T04:45:46.769Z,17.83
2022-10-13T04:48:15.807Z,21.50
2022-10-13T04:50:43.934Z,23.33
2022-10-13T04:53:15.423Z,21.38
2022-10-13T04:55:47.156Z,23.65
2022-10-13T04:58:15.491Z,21.10
2022-10-13T05:00:49.586Z,22.10
2022-10-13T05:03:17.802Z,22.65
2022-10-13T05:05:48.473Z,23.45
2022-10-13T05:08:16.783Z,21.10
2022-10-13T05:10:53.547Z,23.95
2022-10-13T05:13:21.912Z,24.05
2022-10-13T05:15:51.416Z,24.38
2022-10-13T05:18:20.342Z,23.48
2022-10-13T05:20:48.459Z,22.42
2022-10-13T05:23:18.055Z,23.30
2022-10-13T05:25:46.441Z,21.55
2022-10-13T05:28:14.976Z,24.60
2022-10-13T05:30:43.158Z,22.48
2022-10-13T05:33:12.653Z,23.95
2022-10-13T05:35:41.823Z,20.75
2022-10-13T05:38:10.175Z,26.48
2022-10-13T05:40:38.260Z,22.60
2022-10-13T05:43:06.589Z,21.58
2022-10-13T05:45:36.486Z,23.58
2022-10-13T05:48:04.994Z,22.17
2022-10-13T05:50:35.902Z,23.95
2022-10-13T05:53:06.457Z,22.17
2022-10-13T05:55:34.681Z,25.00
2022-10-13T05:58:03.650Z,20.98
2022-10-13T06:00:31.914Z,21.15
2022-10-13T06:03:08.502Z,20.10
2022-10-13T06:05:39.086Z,20.88
2022-10-13T06:08:07.980Z,21.55
2022-10-13T06:11:33.353Z,34.67
2022-10-13T06:14:01.527Z,30.40
2022-10-13T06:16:29.634Z,25.58
2022-10-13T06:18:57.761Z,23.40
2022-10-13T06:21:27.249Z,24.40
2022-10-13T06:23:55.998Z,21.92
2022-10-13T06:26:24.274Z,23.50
2022-10-13T06:28:56.939Z,23.10
2022-10-13T06:31:28.158Z,20.73
2022-10-13T06:33:56.471Z,19.95
2022-10-13T06:36:26.410Z,19.15
2022-10-13T06:38:54.708Z,20.40
2022-10-13T06:41:23.043Z,20.38
2022-10-13T06:43:51.285Z,18.77
2022-10-13T06:46:22.098Z,18.70
2022-10-13T06:48:51.690Z,16.63
2022-10-13T06:51:19.992Z,18.25
2022-10-13T06:53:49.514Z,17.55
2022-10-13T06:56:18.966Z,17.92
2022-10-13T06:58:48.042Z,14.20
2022-10-13T07:01:16.531Z,16.73
2022-10-13T07:03:44.703Z,14.43
2022-10-13T07:06:12.979Z,12.90
2022-10-13T07:08:41.176Z,14.27
2022-10-13T07:11:16.234Z,13.70
2022-10-13T07:13:47.024Z,13.65
2022-10-13T07:16:17.156Z,14.57
2022-10-13T07:18:45.442Z,13.93
2022-10-13T07:21:13.592Z,11.15
2022-10-13T07:23:41.979Z,12.85
2022-10-13T07:26:15.864Z,11.77
2022-10-13T07:28:45.224Z,12.48
2022-10-13T07:31:17.232Z,11.48
2022-10-13T07:33:48.780Z,9.65
2022-10-13T07:36:17.076Z,10.18
2022-10-13T07:38:48.416Z,9.23
2022-10-13T07:41:19.448Z,9.57
2022-10-13T07:43:47.962Z,10.68
2022-10-13T07:46:16.889Z,10.77
2022-10-13T07:48:45.160Z,9.18
2022-10-13T07:51:15.008Z,8.90
2022-10-13T07:53:44.483Z,8.98
2022-10-13T07:56:15.636Z,10.23
2022-10-13T07:58:48.606Z,8.50
2022-10-13T08:01:17.630Z,10.43
2022-10-13T08:03:50.075Z,10.88
2022-10-13T08:06:19.567Z,9.38
2022-10-13T08:08:47.690Z,11.50
2022-10-13T08:11:18.712Z,9.90
2022-10-13T08:13:54.024Z,9.25
2022-10-13T08:16:23.050Z,9.70
2022-10-13T08:18:51.346Z,10.50
2022-10-13T08:24:14.230Z,12.50
2022-10-13T08:26:44.689Z,11.57
2022-10-13T08:29:23.608Z,14.95
2022-10-13T08:31:52.854Z,12.07
2022-10-13T08:34:21.957Z,12.77
2022-10-13T08:36:53.071Z,10.18
2022-10-13T08:39:22.468Z,10.30
2022-10-13T08:41:51.054Z,11.82
2022-10-13T08:47:31.402Z,10.77
2022-10-13T08:50:05.153Z,11.40
2022-10-13T08:52:50.252Z,10.73
2022-10-13T08:55:31.481Z,11.75
2022-10-13T08:58:00.585Z,12.05
2022-10-13T09:00:31.553Z,9.70
2022-10-13T09:03:24.091Z,10.95
2022-10-13T09:06:11.713Z,11.32
2022-10-13T09:11:16.717Z,10.73
2022-10-13T09:13:44.959Z,10.30
2022-10-13T09:16:14.611Z,11.63
2022-10-13T09:18:42.978Z,11.88
2022-10-13T09:21:25.639Z,10.10
2022-10-13T09:24:06.336Z,17.02
2022-10-13T09:26:39.995Z,13.82
2022-10-13T09:29:11.712Z,16.40
2022-10-13T09:31:41.504Z,13.85
2022-10-13T09:34:25.350Z,17.65
2022-10-13T09:36:59.100Z,12.27
2022-10-13T09:39:28.472Z,11.00
2022-10-13T09:42:23.057Z,9.80
2022-10-13T09:44:59.696Z,10.13
2022-10-13T09:47:33.258Z,9.43
2022-10-13T09:50:15.913Z,9.30
2022-10-13T09:52:45.662Z,9.60
2022-10-13T09:55:33.002Z,10.38
2022-10-13T09:58:10.666Z,9.65
2022-10-13T10:00:40.215Z,12.07
2022-10-13T10:03:20.349Z,9.98
2022-10-13T10:05:55.626Z,9.60
2022-10-13T10:08:58.123Z,10.32
2022-10-13T10:11:38.613Z,10.65
2022-10-13T10:14:19.143Z,9.80
2022-10-13T10:16:59.539Z,10.00
2022-10-13T10:19:48.534Z,10.48
2022-10-13T10:22:31.741Z,10.32
2022-10-13T10:25:19.356Z,10.40
2022-10-13T10:28:00.391Z,10.90
2022-10-13T10:30:32.138Z,11.15
2022-10-13T10:33:08.632Z,10.55
2022-10-13T10:35:49.762Z,10.63
2022-10-13T10:38:35.973Z,10.82
2022-10-13T10:41:17.646Z,9.30
2022-10-13T10:43:54.256Z,11.38
2022-10-13T10:46:28.321Z,9.93
2022-10-13T10:49:02.473Z,10.40
2022-10-13T10:51:37.120Z,8.50
2022-10-13T10:54:27.118Z,10.05
2022-10-13T10:57:01.799Z,10.65
2022-10-13T10:59:52.808Z,8.43
2022-10-13T11:02:44.616Z,8.50
2022-10-13T11:05:13.881Z,10.55
2022-10-13T11:08:00.968Z,8.40
2022-10-13T11:10:30.588Z,7.53
2022-10-13T11:13:22.589Z,9.15
2022-10-13T11:15:51.580Z,7.57
2022-10-13T11:19:06.683Z,9.20
2022-10-13T11:22:24.888Z,8.35
2022-10-13T11:25:41.408Z,8.13
2022-10-13T11:28:46.969Z,7.90
2022-10-13T11:31:53.736Z,7.93
2022-10-13T11:34:33.409Z,7.97
2022-10-13T11:37:03.761Z,8.73
2022-10-13T11:40:17.917Z,7.30
2022-10-13T11:43:20.067Z,6.47
2022-10-13T11:46:17.312Z,14.82
2022-10-13T11:49:32.320Z,9.20
2022-10-13T11:52:28.431Z,7.53
2022-10-13T11:55:03.932Z,8.07
2022-10-13T11:57:34.999Z,7.97
2022-10-13T13:41:04.149Z,9.68
2022-10-13T13:43:32.489Z,8.70
2022-10-13T13:46:00.609Z,8.00
2022-10-13T13:48:28.655Z,8.73
2022-10-13T13:50:56.855Z,10.57
2022-10-13T13:53:25.362Z,10.32
2022-10-13T13:55:53.452Z,10.57
2022-10-13T13:58:22.932Z,10.38
2022-10-13T14:00:51.000Z,11.60
2022-10-13T14:03:19.618Z,9.98
2022-10-13T14:05:47.806Z,11.85
2022-10-13T14:08:16.025Z,11.07
2022-10-13T14:10:44.264Z,10.57
2022-10-13T14:13:12.550Z,10.98
2022-10-13T14:15:42.147Z,10.02
2022-10-13T14:18:10.213Z,11.63
2022-10-13T14:20:42.690Z,10.98
2022-10-13T14:23:10.810Z,9.85
2022-10-13T14:25:39.704Z,10.25
2022-10-13T14:28:07.861Z,9.50
2022-10-13T14:30:35.953Z,8.43
2022-10-13T14:33:05.595Z,9.30
2022-10-13T14:35:33.751Z,9.63
2022-10-13T14:38:02.090Z,8.85
2022-10-13T14:40:30.127Z,9.60
2022-10-13T14:42:58.174Z,9.30
2022-10-13T14:45:26.677Z,8.73
2022-10-13T14:47:54.739Z,9.40
2022-10-13T14:50:24.171Z,9.45
2022-10-13T14:52:52.309Z,10.45
2022-10-13T14:55:20.456Z,11.07
2022-10-13T14:57:49.346Z,10.10
2022-10-13T15:00:18.328Z,11.07
2022-10-13T15:02:46.445Z,10.85
2022-10-13T15:05:14.784Z,11.20
2022-10-13T15:07:44.236Z,11.93
2022-10-13T15:10:12.283Z,14.32
2022-10-13T15:12:40.392Z,14.48
2022-10-13T15:15:10.400Z,16.17
2022-10-13T15:17:38.535Z,15.05
2022-10-13T15:20:08.954Z,13.05
2022-10-13T15:22:37.376Z,12.85
2022-10-13T15:25:10.312Z,11.18
2022-10-13T15:27:41.841Z,12.70
2022-10-13T15:30:13.000Z,13.63
2022-10-13T15:32:41.362Z,13.95
2022-10-13T15:35:10.375Z,14.93
2022-10-13T15:37:38.569Z,13.75
2022-10-13T15:40:10.493Z,14.13
2022-10-13T15:42:38.645Z,13.05
2022-10-13T15:45:10.337Z,13.77
2022-10-13T15:47:39.270Z,13.43
2022-10-13T15:50:08.798Z,14.55
2022-10-13T15:52:40.291Z,12.73
2022-10-13T15:55:12.847Z,15.13
2022-10-13T15:57:41.120Z,15.40
2022-10-13T16:00:13.546Z,15.20
2022-10-13T16:02:41.909Z,15.40
2022-10-13T16:05:13.148Z,16.13
2022-10-13T16:07:41.909Z,14.57
2022-10-13T16:10:14.896Z,16.20
2022-10-13T16:12:48.554Z,14.27
2022-10-13T16:15:19.001Z,17.17
2022-10-13T16:17:47.249Z,16.23
2022-10-13T16:20:15.623Z,16.73
2022-10-13T16:22:45.369Z,19.60
2022-10-13T16:25:14.955Z,30.20
2022-10-13T16:27:44.473Z,19.40
2022-10-13T16:30:13.807Z,18.08
2022-10-13T16:32:42.262Z,18.00
2022-10-13T16:35:10.887Z,17.55
2022-10-13T16:37:38.937Z,16.50
2022-10-13T16:40:08.497Z,18.58
2022-10-13T16:42:38.012Z,17.75
2022-10-13T16:45:08.028Z,20.27
2022-10-13T16:47:36.924Z,19.77
2022-10-13T16:50:09.487Z,19.60
2022-10-13T16:52:37.743Z,19.33
2022-10-13T16:55:07.651Z,19.58
2022-10-13T16:57:37.112Z,19.88
2022-10-13T17:00:06.849Z,24.08
2022-10-13T17:02:36.260Z,20.63
2022-10-13T17:05:04.643Z,18.08
2022-10-13T17:07:32.788Z,20.25
2022-10-13T17:10:01.532Z,17.80
2022-10-13T17:12:29.695Z,17.52
2022-10-13T17:14:59.263Z,18.95
2022-10-13T17:17:28.793Z,18.52
2022-10-13T17:19:56.840Z,17.42
2022-10-13T17:22:24.896Z,20.30
2022-10-13T17:24:52.960Z,18.52
2022-10-13T17:27:21.313Z,17.30
2022-10-13T17:29:50.033Z,18.45
2022-10-13T17:32:19.449Z,15.38
2022-10-13T17:34:47.844Z,17.20
2022-10-13T17:37:15.947Z,13.80
2022-10-13T17:39:44.104Z,12.40
2022-10-13T17:42:12.927Z,12.20
2022-10-13T17:44:42.325Z,9.98
2022-10-13T17:47:10.509Z,9.90
2022-10-13T17:49:39.915Z,7.45
2022-10-13T17:52:08.036Z,7.50
2022-10-13T17:54:36.100Z,7.05
2022-10-13T17:57:04.345Z,5.45
2022-10-13T17:59:32.531Z,5.13
2022-10-13T18:02:00.853Z,5.47
2022-10-13T18:04:29.861Z,5.68
2022-10-13T18:06:59.297Z,4.35
2022-10-13T18:09:27.392Z,5.22
2022-10-13T18:11:56.598Z,4.45
2022-10-13T18:14:26.047Z,4.55
2022-10-13T18:16:55.240Z,4.72
2022-10-13T18:19:23.829Z,4.47
2022-10-13T18:21:52.937Z,4.68
2022-10-13T18:24:23.848Z,4.80
2022-10-13T18:26:52.000Z,4.80
2022-10-13T18:29:20.230Z,4.25
2022-10-13T18:31:48.296Z,6.93
2022-10-13T18:34:18.479Z,5.47
2022-10-13T18:36:49.368Z,9.05
2022-10-13T18:39:22.471Z,10.35
2022-10-13T18:41:53.131Z,9.95
2022-10-13T18:44:22.488Z,11.40
2022-10-13T18:46:52.066Z,13.38
2022-10-13T18:49:23.219Z,13.30
2022-10-13T18:51:52.191Z,11.55
2022-10-13T18:54:20.276Z,10.23
2022-10-13T18:56:48.406Z,10.63
2022-10-13T18:59:17.946Z,10.23
2022-10-13T19:01:46.443Z,9.90
2022-10-13T19:04:16.683Z,9.73
2022-10-13T19:06:46.390Z,7.68
2022-10-13T19:09:17.522Z,9.27
2022-10-13T19:11:45.934Z,9.13
2022-10-13T19:14:14.761Z,8.75
2022-10-13T19:16:45.216Z,9.07
2022-10-13T19:19:14.434Z,9.18
2022-10-13T19:21:43.289Z,7.78
2022-10-13T19:24:12.165Z,8.15
2022-10-13T19:26:40.639Z,8.70
2022-10-13T19:29:11.759Z,7.85
2022-10-13T19:31:43.456Z,8.23
2022-10-13T19:34:14.340Z,7.75
2022-10-13T19:36:45.045Z,8.20
2022-10-13T19:39:17.544Z,7.30
2022-10-13T19:41:48.018Z,7.30
2022-10-13T19:44:18.427Z,8.65
2022-10-13T19:46:49.008Z,6.88
2022-10-13T19:49:20.919Z,8.25
2022-10-13T19:51:51.535Z,6.43
2022-10-13T19:54:23.083Z,8.30
2022-10-13T19:56:51.848Z,6.35
2022-10-13T19:59:20.495Z,7.00
2022-10-13T20:01:50.158Z,6.32
2022-10-13T20:04:20.491Z,7.15
2022-10-13T20:06:49.869Z,5.97
2022-10-13T20:09:19.481Z,6.93
2022-10-13T20:11:49.316Z,6.35
2022-10-13T20:14:18.916Z,7.63
2022-10-13T20:16:47.243Z,6.38
2022-10-13T20:19:19.517Z,7.28
2022-10-13T20:21:48.559Z,7.43
2022-10-13T20:24:16.756Z,6.47
2022-10-13T20:26:45.083Z,7.05
2022-10-13T20:29:13.227Z,9.60
2022-10-13T20:31:41.512Z,16.98
2022-10-13T20:34:11.847Z,8.65
2022-10-13T20:36:41.377Z,8.30
2022-10-13T20:39:09.981Z,7.82
2022-10-13T20:41:38.289Z,7.38
2022-10-13T20:44:07.164Z,6.70
2022-10-13T20:46:35.298Z,6.85
2022-10-13T20:49:12.948Z,8.25
2022-10-13T20:51:44.469Z,7.80
2022-10-13T20:54:15.254Z,7.20
2022-10-13T20:56:44.113Z,9.30
2022-10-13T20:59:15.550Z,8.57
2022-10-13T21:01:44.029Z,9.20
2022-10-13T21:04:12.375Z,7.70
2022-10-13T21:06:43.535Z,8.45
2022-10-13T21:09:12.167Z,8.35
2022-10-13T21:11:40.629Z,7.82
2022-10-13T21:14:09.722Z,8.50
2022-10-13T21:16:39.051Z,8.02
2022-10-13T21:19:07.742Z,7.85
2022-10-13T21:21:36.259Z,8.60
2022-10-13T21:24:08.571Z,9.02
2022-10-13T21:26:38.308Z,8.35
2022-10-13T21:29:06.895Z,8.80
2022-10-13T21:31:35.212Z,8.27
2022-10-13T21:34:03.432Z,9.00
2022-10-13T21:36:33.879Z,8.00
2022-10-13T21:39:05.908Z,11.00
2022-10-13T21:41:34.224Z,9.85
2022-10-13T21:44:02.411Z,10.68
2022-10-13T21:46:33.032Z,10.88
2022-10-13T21:49:03.496Z,13.00
2022-10-13T21:51:36.062Z,14.05
2022-10-13T21:54:09.956Z,10.95
2022-10-13T21:56:38.867Z,11.40
2022-10-13T21:59:08.822Z,12.00
2022-10-13T22:01:36.948Z,11.65
2022-10-13T22:04:06.236Z,14.57
2022-10-13T22:06:35.127Z,12.77
2022-10-13T22:09:06.695Z,10.60
2022-10-13T22:11:38.932Z,12.13
2022-10-13T22:14:07.914Z,10.57
2022-10-13T22:16:39.948Z,11.63
2022-10-13T22:19:08.651Z,11.35
2022-10-13T22:21:39.967Z,11.07
2022-10-13T22:24:13.431Z,10.40
2022-10-13T22:26:43.264Z,12.57
2022-10-13T22:29:15.815Z,10.98
2022-10-13T22:31:44.268Z,11.25
2022-10-13T22:34:14.001Z,14.55
2022-10-13T22:36:45.095Z,11.35
2022-10-13T22:39:16.585Z,10.35
2022-10-13T22:41:44.845Z,12.05
2022-10-13T22:44:14.126Z,11.93
2022-10-13T22:46:42.748Z,11.40
2022-10-13T22:49:13.232Z,11.02
2022-10-13T22:51:41.525Z,12.60
2022-10-13T22:54:11.370Z,13.32
2022-10-13T22:56:42.276Z,13.23
2022-10-13T22:59:12.828Z,13.15
2022-10-13T23:01:41.452Z,13.98
2022-10-13T23:04:09.544Z,13.30
2022-10-13T23:06:37.947Z,14.77
2022-10-13T23:09:09.187Z,12.63
2022-10-13T23:11:37.418Z,15.02
2022-10-13T23:14:07.464Z,13.25
2022-10-13T23:16:35.931Z,13.60
2022-10-13T23:19:04.423Z,15.43
2022-10-13T23:21:33.232Z,13.70
2022-10-13T23:24:04.330Z,13.52
2022-10-13T23:26:34.321Z,13.25
2022-10-13T23:29:02.840Z,14.20
2022-10-13T23:31:32.685Z,14.13
2022-10-13T23:34:00.809Z,13.13
2022-10-13T23:36:32.086Z,13.55
2022-10-13T23:39:03.465Z,14.23
2022-10-13T23:41:31.808Z,12.80
2022-10-13T23:43:59.990Z,13.00
2022-10-13T23:46:28.425Z,13.70
2022-10-13T23:48:58.126Z,13.95
2022-10-13T23:51:27.054Z,14.70
2022-10-13T23:53:56.073Z,15.88
2022-10-13T23:56:24.448Z,13.23
2022-10-13T23:58:52.879Z,15.05
